Time;durP1;ratioP1;P1;durP2;ratioP2;P2;SDS_P1;SDS_P2;PMS_P1;PMS_P2;Temp;Humidity;BMP_temperature;BMP_pressure;BME280_temperature;BME280_humidity;BME280_pressure;Samples;Min_cycle;Max_cycle;Signal;HPM_P1;HPM_P2
2024/03/28 00:01:07;;;;;;;;;;;13.70;95.00;;;;;;5070485;28;19916;-75
2024/03/28 00:03:33;;;;;;;;;;;13.70;95.00;;;;;;5070627;28;20296;-74
2024/03/28 00:05:59;;;;;;;;;;;13.60;95.00;;;;;;5070395;28;19908;-74
2024/03/28 00:08:25;;;;;;;;;;;13.70;95.10;;;;;;5070639;28;20280;-75
2024/03/28 00:10:51;;;;;;;;;;;13.80;94.90;;;;;;5052530;28;20682;-75
2024/03/28 00:13:17;;;;;;;;;;;13.80;94.80;;;;;;5052451;28;20430;-75
2024/03/28 00:15:43;;;;;;;;;;;13.80;95.00;;;;;;5070337;28;19904;-74
2024/03/28 00:18:09;;;;;;;;;;;13.80;94.80;;;;;;5070299;28;20610;-75
2024/03/28 00:20:34;;;;;;;;;;;13.70;95.20;;;;;;5052182;28;20303;-74
2024/03/28 00:23:03;;;;;;;;;;;13.80;95.20;;;;;;5051956;28;19940;-74
2024/03/28 00:25:29;;;;;;;;;;;13.70;95.20;;;;;;5070125;28;19905;-74
2024/03/28 00:27:57;;;;;;;;;;;13.70;95.40;;;;;;5052301;28;19993;-75
2024/03/28 00:30:22;;;;;;;;;;;13.70;95.50;;;;;;5052344;28;19904;-75
2024/03/28 00:32:48;;;;;;;;;;;13.60;95.70;;;;;;5070096;28;20361;-75
2024/03/28 00:35:15;;;;;;;;;;;13.60;95.60;;;;;;5052360;28;19937;-75
2024/03/28 00:37:40;;;;;;;;;;;13.60;95.70;;;;;;5069968;28;19908;-72
2024/03/28 00:40:06;;;;;;;;;;;13.60;95.70;;;;;;5086555;28;19973;-73
2024/03/28 00:42:32;;;;;;;;;;;13.60;95.70;;;;;;5089797;28;19915;-71
2024/03/28 00:44:59;;;;;;;;;;;13.60;95.70;;;;;;5089815;28;19912;-74
2024/03/28 00:47:24;;;;;;;;;;;13.90;95.10;;;;;;5090161;28;19910;-74
2024/03/28 00:49:50;;;;;;;;;;;13.80;95.30;;;;;;5090184;28;19994;-73
2024/03/28 00:52:15;;;;;;;;;;;13.70;95.40;;;;;;5088756;28;20409;-73
2024/03/28 00:54:41;;;;;;;;;;;13.70;95.50;;;;;;5088762;28;19904;-73
2024/03/28 00:57:06;;;;;;;;;;;13.60;95.50;;;;;;5089017;28;19959;-73
2024/03/28 00:59:32;;;;;;;;;;;13.70;95.30;;;;;;5090274;28;20037;-73
2024/03/28 01:01:57;;;;;;;;;;;13.70;95.20;;;;;;5088540;28;20452;-72
2024/03/28 01:04:23;;;;;;;;;;;13.60;95.50;;;;;;5088889;28;19915;-72
2024/03/28 01:06:48;;;;;;;;;;;13.60;95.60;;;;;;5089888;28;19908;-73
2024/03/28 01:09:14;;;;;;;;;;;13.50;95.70;;;;;;5090013;28;19919;-73
2024/03/28 01:11:39;;;;;;;;;;;13.50;95.90;;;;;;5089915;28;19911;-73
2024/03/28 01:14:05;;;;;;;;;;;13.40;96.00;;;;;;5088610;28;19904;-73
2024/03/28 01:16:30;;;;;;;;;;;13.30;96.10;;;;;;5089854;28;19911;-73
2024/03/28 01:18:56;;;;;;;;;;;13.30;96.30;;;;;;5089846;28;19991;-73
2024/03/28 01:21:21;;;;;;;;;;;13.30;96.40;;;;;;5089806;28;19912;-73
2024/03/28 01:23:47;;;;;;;;;;;13.30;96.60;;;;;;5088444;28;19908;-74
2024/03/28 01:26:12;;;;;;;;;;;13.40;96.40;;;;;;5088507;28;19907;-75
2024/03/28 01:28:38;;;;;;;;;;;13.30;96.40;;;;;;5089747;28;19904;-75
2024/03/28 01:31:04;;;;;;;;;;;13.30;96.60;;;;;;5088296;28;19908;-74
2024/03/28 01:33:31;;;;;;;;;;;13.40;96.20;;;;;;5089606;28;19904;-74
2024/03/28 01:35:56;;;;;;;;;;;13.30;96.50;;;;;;5089832;28;19915;-74
2024/03/28 01:38:22;;;;;;;;;;;13.20;96.60;;;;;;5088202;28;19908;-75
2024/03/28 01:40:47;;;;;;;;;;;13.20;96.90;;;;;;5088217;28;19939;-75
2024/03/28 01:43:13;;;;;;;;;;;13.20;97.00;;;;;;5089541;28;20025;-74
2024/03/28 01:45:39;;;;;;;;;;;13.40;96.40;;;;;;5087892;28;19912;-74
2024/03/28 01:48:06;;;;;;;;;;;13.30;96.60;;;;;;5089526;28;19911;-75
2024/03/28 01:50:31;;;;;;;;;;;13.20;97.50;;;;;;5088138;28;19908;-74
2024/03/28 01:52:57;;;;;;;;;;;12.90;99.30;;;;;;5089530;28;19908;-74
2024/03/28 01:55:23;;;;;;;;;;;12.60;99.90;;;;;;5090673;28;20015;-75
2024/03/28 01:57:49;;;;;;;;;;;12.30;99.90;;;;;;5093098;28;20291;-75
2024/03/28 02:00:15;;;;;;;;;;;12.20;99.90;;;;;;5091921;28;19908;-75
2024/03/28 02:02:41;;;;;;;;;;;12.10;99.90;;;;;;5093261;28;20372;-75
2024/03/28 02:05:07;;;;;;;;;;;12.10;99.90;;;;;;5093204;28;19904;-74
2024/03/28 02:07:32;;;;;;;;;;;12.10;99.90;;;;;;5091831;28;19908;-74
2024/03/28 02:12:42;;;;;;;;;;;12.10;99.90;;;;;;5093178;28;19952;-76
2024/03/28 02:15:08;;;;;;;;;;;12.20;99.90;;;;;;5091955;28;20695;-73
2024/03/28 02:17:44;;;;;;;;;;;12.10;99.90;;;;;;5091578;28;19977;-76
2024/03/28 02:20:09;;;;;;;;;;;12.00;99.90;;;;;;5091373;28;19995;-75
2024/03/28 02:22:35;;;;;;;;;;;11.90;99.90;;;;;;5092844;28;20014;-75
2024/03/28 02:25:01;;;;;;;;;;;11.70;99.90;;;;;;5091585;28;19904;-75
2024/03/28 02:27:27;;;;;;;;;;;11.60;99.90;;;;;;5092684;28;19943;-75
2024/03/28 02:29:52;;;;;;;;;;;11.40;99.90;;;;;;5091439;28;20340;-75
2024/03/28 02:32:18;;;;;;;;;;;11.40;99.90;;;;;;5091566;28;20360;-75
2024/03/28 02:34:43;;;;;;;;;;;11.30;99.90;;;;;;5092151;28;20284;-76
2024/03/28 02:37:10;;;;;;;;;;;11.20;99.90;;;;;;5091151;28;20288;-74
2024/03/28 02:39:35;;;;;;;;;;;11.10;99.90;;;;;;5077289;28;19917;-75
2024/03/28 02:42:01;;;;;;;;;;;11.10;99.90;;;;;;5054095;28;20811;-75
2024/03/28 02:44:26;;;;;;;;;;;11.00;99.90;;;;;;5072206;28;20325;-74
2024/03/28 02:46:52;;;;;;;;;;;11.00;99.90;;;;;;5054027;28;20522;-75
2024/03/28 02:49:17;;;;;;;;;;;10.90;99.90;;;;;;5072043;28;19915;-75
2024/03/28 02:51:43;;;;;;;;;;;10.90;99.90;;;;;;5072488;28;20365;-75
2024/03/28 02:54:08;;;;;;;;;;;10.90;99.90;;;;;;5054026;28;19955;-76
2024/03/28 02:56:34;;;;;;;;;;;10.90;99.90;;;;;;5071864;28;19904;-75
2024/03/28 02:58:59;;;;;;;;;;;10.80;99.90;;;;;;5071862;28;19905;-74
2024/03/28 03:01:25;;;;;;;;;;;10.90;99.90;;;;;;5053837;28;20377;-75
2024/03/28 03:03:50;;;;;;;;;;;10.80;99.90;;;;;;5053821;28;19909;-74
2024/03/28 03:06:16;;;;;;;;;;;10.80;99.90;;;;;;5071165;28;19908;-74
2024/03/28 03:08:41;;;;;;;;;;;10.70;99.90;;;;;;5071932;28;19922;-74
2024/03/28 03:11:07;;;;;;;;;;;10.70;99.90;;;;;;5053748;28;19909;-74
2024/03/28 03:13:32;;;;;;;;;;;10.70;99.90;;;;;;5054147;28;20008;-75
2024/03/28 03:15:59;;;;;;;;;;;10.70;99.90;;;;;;5071881;28;19926;-75
2024/03/28 03:18:26;;;;;;;;;;;10.80;99.90;;;;;;5071943;28;19912;-75
2024/03/28 03:21:00;;;;;;;;;;;10.70;99.90;;;;;;5053606;28;20314;-75
2024/03/28 03:23:27;;;;;;;;;;;10.70;99.90;;;;;;5071574;28;19908;-75
2024/03/28 03:25:59;;;;;;;;;;;10.60;99.90;;;;;;5054017;28;19920;-74
2024/03/28 03:36:38;;;;;;;;;;;10.60;99.90;;;;;;5075420;28;19914;-75
2024/03/28 03:39:04;;;;;;;;;;;10.60;99.90;;;;;;5072274;28;20284;-73
2024/03/28 03:41:29;;;;;;;;;;;10.60;99.90;;;;;;5091941;28;20427;-75
2024/03/28 03:43:55;;;;;;;;;;;10.60;99.90;;;;;;5090833;28;20340;-75
2024/03/28 03:46:20;;;;;;;;;;;10.70;99.90;;;;;;5091563;28;19930;-75
2024/03/28 03:48:46;;;;;;;;;;;10.70;99.90;;;;;;5093910;28;20524;-75
2024/03/28 03:51:12;;;;;;;;;;;10.80;99.90;;;;;;5095603;28;19991;-76
2024/03/28 03:53:37;;;;;;;;;;;10.80;99.90;;;;;;5093166;28;19957;-75
2024/03/28 03:56:03;;;;;;;;;;;10.80;99.90;;;;;;5090283;28;19915;-75
2024/03/28 03:58:29;;;;;;;;;;;10.90;99.90;;;;;;5091351;28;19953;-74
2024/03/28 04:00:54;;;;;;;;;;;10.90;99.90;;;;;;5089870;28;19916;-76
2024/03/28 04:03:20;;;;;;;;;;;10.90;99.90;;;;;;5091125;28;19940;-75
2024/03/28 04:05:48;;;;;;;;;;;10.90;99.90;;;;;;5089646;28;19915;-76
2024/03/28 04:08:14;;;;;;;;;;;10.90;99.90;;;;;;5089940;28;20660;-75
2024/03/28 04:10:39;;;;;;;;;;;10.90;99.90;;;;;;5090919;28;19943;-76
2024/03/28 04:13:05;;;;;;;;;;;10.90;99.90;;;;;;5089788;28;19943;-75
2024/03/28 04:15:30;;;;;;;;;;;10.90;99.90;;;;;;5089101;28;19998;-75
2024/03/28 04:17:56;;;;;;;;;;;10.90;99.90;;;;;;5089678;28;20003;-74
2024/03/28 04:20:22;;;;;;;;;;;10.90;99.90;;;;;;5089185;28;19904;-74
2024/03/28 04:22:47;;;;;;;;;;;10.80;99.90;;;;;;5089295;28;19908;-75
2024/03/28 04:25:14;;;;;;;;;;;10.80;99.90;;;;;;5090595;28;19911;-75
2024/03/28 04:27:39;;;;;;;;;;;10.90;99.90;;;;;;5090606;28;19939;-75
2024/03/28 04:30:06;;;;;;;;;;;10.90;99.90;;;;;;5090934;28;19955;-74
2024/03/28 04:32:32;;;;;;;;;;;10.90;99.90;;;;;;5089495;28;20390;-75
2024/03/28 04:34:58;;;;;;;;;;;10.90;99.90;;;;;;5090281;28;19912;-76
2024/03/28 04:37:24;;;;;;;;;;;10.90;99.90;;;;;;5090479;28;19913;-75
2024/03/28 04:39:49;;;;;;;;;;;10.90;99.90;;;;;;5073567;28;19916;-74
2024/03/28 04:42:16;;;;;;;;;;;10.90;99.90;;;;;;5052022;28;19917;-74
2024/03/28 04:44:41;;;;;;;;;;;10.90;99.90;;;;;;5069830;28;19915;-75
2024/03/28 04:47:07;;;;;;;;;;;10.90;99.90;;;;;;5052162;28;20022;-75
2024/03/28 04:49:32;;;;;;;;;;;10.90;99.90;;;;;;5070011;28;19987;-76
2024/03/28 04:51:59;;;;;;;;;;;10.90;99.90;;;;;;5051958;28;19970;-74
2024/03/28 04:54:24;;;;;;;;;;;10.80;99.90;;;;;;5070112;28;19908;-76
2024/03/28 04:56:50;;;;;;;;;;;10.90;99.90;;;;;;5051716;28;19911;-75
2024/03/28 04:59:15;;;;;;;;;;;10.90;99.90;;;;;;5064290;28;19904;-71
2024/03/28 05:01:41;;;;;;;;;;;10.90;99.90;;;;;;5051494;28;19920;-73
2024/03/28 05:04:07;;;;;;;;;;;10.90;99.90;;;;;;5052051;28;19908;-75
2024/03/28 05:06:34;;;;;;;;;;;10.90;99.90;;;;;;5069753;28;19931;-75
2024/03/28 05:09:00;;;;;;;;;;;10.90;99.90;;;;;;5051398;28;20365;-75
2024/03/28 05:11:25;;;;;;;;;;;10.80;99.90;;;;;;5051560;28;19914;-75
2024/03/28 05:13:51;;;;;;;;;;;10.90;99.90;;;;;;5051646;28;19915;-74
2024/03/28 05:16:17;;;;;;;;;;;10.90;99.90;;;;;;5051475;28;19912;-75
2024/03/28 05:18:42;;;;;;;;;;;10.80;99.90;;;;;;5051453;28;19914;-75
2024/03/28 05:21:08;;;;;;;;;;;10.80;99.90;;;;;;5069727;28;19920;-74
2024/03/28 05:23:33;;;;;;;;;;;10.80;99.90;;;;;;5069609;28;19914;-75
2024/03/28 05:25:59;;;;;;;;;;;10.70;99.90;;;;;;5051424;28;19912;-75
2024/03/28 05:28:25;;;;;;;;;;;10.70;99.90;;;;;;5052184;28;19923;-73
2024/03/28 05:30:52;;;;;;;;;;;10.60;99.90;;;;;;5073012;28;19922;-74
2024/03/28 05:33:18;;;;;;;;;;;10.60;99.90;;;;;;5055454;28;19904;-75
2024/03/28 05:35:44;;;;;;;;;;;10.60;99.90;;;;;;5073422;28;19961;-74
2024/03/28 05:38:10;;;;;;;;;;;10.60;99.90;;;;;;5055342;28;19912;-75
2024/03/28 05:40:35;;;;;;;;;;;10.60;99.90;;;;;;5073828;28;19923;-74
2024/03/28 05:43:01;;;;;;;;;;;10.70;99.90;;;;;;5073388;28;20250;-75
2024/03/28 05:45:26;;;;;;;;;;;10.70;99.90;;;;;;5073319;28;19904;-74
2024/03/28 05:47:52;;;;;;;;;;;10.70;99.90;;;;;;5055000;28;20373;-75
2024/03/28 05:50:18;;;;;;;;;;;10.70;99.90;;;;;;5055121;28;19914;-74
2024/03/28 05:52:43;;;;;;;;;;;10.70;99.90;;;;;;5055111;28;19953;-75
2024/03/28 05:55:09;;;;;;;;;;;10.70;99.90;;;;;;5073203;28;19911;-74
2024/03/28 05:57:35;;;;;;;;;;;10.70;99.90;;;;;;5054979;28;20304;-75
2024/03/28 06:00:00;;;;;;;;;;;10.80;99.90;;;;;;5073140;28;19931;-75
2024/03/28 06:02:26;;;;;;;;;;;10.80;99.90;;;;;;5055274;28;19916;-75
2024/03/28 06:04:51;;;;;;;;;;;10.80;99.90;;;;;;5072732;28;19904;-74
2024/03/28 06:07:17;;;;;;;;;;;10.80;99.90;;;;;;5054816;28;19912;-74
2024/03/28 06:09:42;;;;;;;;;;;10.80;99.90;;;;;;5054586;28;19911;-74
2024/03/28 06:12:08;;;;;;;;;;;10.90;99.90;;;;;;5072735;28;19912;-74
2024/03/28 06:14:36;;;;;;;;;;;10.90;99.90;;;;;;5054333;28;19990;-75
2024/03/28 06:17:02;;;;;;;;;;;10.90;99.90;;;;;;5054826;28;19912;-74
2024/03/28 06:19:27;;;;;;;;;;;11.00;99.90;;;;;;5054626;28;20514;-75
2024/03/28 06:21:53;;;;;;;;;;;11.00;99.90;;;;;;5072561;28;20011;-75
2024/03/28 06:24:18;;;;;;;;;;;11.00;99.90;;;;;;5054467;28;20009;-73
2024/03/28 06:26:44;;;;;;;;;;;11.00;99.90;;;;;;5054445;28;20042;-73
2024/03/28 06:29:10;;;;;;;;;;;11.00;99.90;;;;;;5072453;28;19911;-74
2024/03/28 06:31:40;;;;;;;;;;;11.00;99.90;;;;;;5072334;28;20419;-74
2024/03/28 06:34:06;;;;;;;;;;;11.00;99.90;;;;;;5054533;28;20415;-75
2024/03/28 06:36:31;;;;;;;;;;;11.10;99.90;;;;;;5054445;28;20434;-74
2024/03/28 06:38:57;;;;;;;;;;;11.10;99.90;;;;;;5071963;28;20015;-75
2024/03/28 06:41:22;;;;;;;;;;;11.00;99.90;;;;;;5053370;28;19935;-73
2024/03/28 06:43:49;;;;;;;;;;;11.10;99.90;;;;;;5054285;28;20418;-73
2024/03/28 06:46:14;;;;;;;;;;;11.20;99.90;;;;;;5072316;28;19904;-74
2024/03/28 06:48:40;;;;;;;;;;;11.20;99.90;;;;;;5072038;28;19911;-73
2024/03/28 06:51:05;;;;;;;;;;;11.20;99.90;;;;;;5054276;28;20395;-73
2024/03/28 06:53:31;;;;;;;;;;;11.20;99.90;;;;;;5071870;28;19904;-74
2024/03/28 06:55:57;;;;;;;;;;;11.30;99.90;;;;;;5071921;28;20369;-73
2024/03/28 06:58:22;;;;;;;;;;;11.30;99.90;;;;;;5071812;28;19904;-72
2024/03/28 07:00:48;;;;;;;;;;;11.30;99.90;;;;;;5071809;28;20007;-72
2024/03/28 07:03:13;;;;;;;;;;;11.50;99.90;;;;;;5053901;28;19950;-73
2024/03/28 07:05:39;;;;;;;;;;;11.40;99.90;;;;;;5053950;28;19912;-74
2024/03/28 07:08:04;;;;;;;;;;;11.40;99.90;;;;;;5054066;28;19905;-72
2024/03/28 07:10:30;;;;;;;;;;;11.50;99.90;;;;;;5054216;28;19916;-74
2024/03/28 07:12:55;;;;;;;;;;;11.60;99.90;;;;;;5053401;28;20277;-74
2024/03/28 07:15:21;;;;;;;;;;;11.60;99.90;;;;;;5053469;28;20266;-72
2024/03/28 07:17:46;;;;;;;;;;;11.70;99.90;;;;;;5071558;28;20408;-74
2024/03/28 07:20:12;;;;;;;;;;;11.70;99.90;;;;;;5053634;28;19908;-73
2024/03/28 07:22:38;;;;;;;;;;;11.70;99.90;;;;;;5071407;28;20019;-74
2024/03/28 07:25:03;;;;;;;;;;;11.80;99.90;;;;;;5053476;28;19959;-73
2024/03/28 07:27:29;;;;;;;;;;;11.90;99.90;;;;;;5053357;28;20487;-74
2024/03/28 07:29:54;;;;;;;;;;;12.10;99.90;;;;;;5071456;28;20369;-72
2024/03/28 07:32:21;;;;;;;;;;;12.50;99.90;;;;;;5071458;28;20396;-73
2024/03/28 07:34:46;;;;;;;;;;;12.50;99.90;;;;;;5071600;28;19905;-74
2024/03/28 07:37:12;;;;;;;;;;;12.60;99.90;;;;;;5071290;28;19908;-74
2024/03/28 07:39:37;;;;;;;;;;;12.50;99.90;;;;;;5079949;28;20692;-74
2024/03/28 07:42:03;;;;;;;;;;;12.40;99.90;;;;;;5089815;28;20041;-72
2024/03/28 07:44:28;;;;;;;;;;;12.40;99.90;;;;;;5091062;28;19908;-74
2024/03/28 07:46:54;;;;;;;;;;;12.30;99.90;;;;;;5089782;28;19904;-75
2024/03/28 07:49:21;;;;;;;;;;;12.30;99.90;;;;;;5089526;28;20280;-73
2024/03/28 07:51:46;;;;;;;;;;;12.20;99.90;;;;;;5089407;28;19908;-73
2024/03/28 07:54:12;;;;;;;;;;;12.10;99.90;;;;;;5083778;28;19908;-73
2024/03/28 07:56:37;;;;;;;;;;;12.10;99.90;;;;;;5090679;28;19915;-74
2024/03/28 07:59:03;;;;;;;;;;;12.00;99.90;;;;;;5091283;28;20387;-73
2024/03/28 08:01:28;;;;;;;;;;;12.10;99.90;;;;;;5090656;28;19926;-73
2024/03/28 08:03:54;;;;;;;;;;;12.30;99.90;;;;;;5090886;28;19910;-74
2024/03/28 08:06:19;;;;;;;;;;;12.60;99.90;;;;;;5089493;28;19908;-73
2024/03/28 08:08:45;;;;;;;;;;;13.30;99.90;;;;;;5089060;28;19904;-74
2024/03/28 08:11:10;;;;;;;;;;;14.00;99.90;;;;;;5089349;28;20368;-74
2024/03/28 08:13:36;;;;;;;;;;;15.10;99.90;;;;;;5090892;28;20436;-74
2024/03/28 08:16:02;;;;;;;;;;;16.20;97.50;;;;;;5089141;28;19958;-73
2024/03/28 08:18:27;;;;;;;;;;;17.30;94.10;;;;;;5089493;28;19908;-73
2024/03/28 08:20:57;;;;;;;;;;;18.40;84.10;;;;;;5090647;28;19923;-73
2024/03/28 08:23:22;;;;;;;;;;;18.90;76.60;;;;;;5089105;28;19904;-74
2024/03/28 08:25:48;;;;;;;;;;;18.30;73.10;;;;;;5090505;28;20326;-74
2024/03/28 08:28:15;;;;;;;;;;;17.60;73.10;;;;;;5089274;28;19930;-74
2024/03/28 08:30:40;;;;;;;;;;;17.20;77.00;;;;;;5090503;28;19908;-72
2024/03/28 08:33:06;;;;;;;;;;;17.30;76.70;;;;;;5088194;28;20304;-73
2024/03/28 08:35:38;;;;;;;;;;;17.70;75.50;;;;;;5088804;28;19951;-75
2024/03/28 08:38:04;;;;;;;;;;;18.10;75.10;;;;;;5087871;28;19950;-73
2024/03/28 08:40:30;;;;;;;;;;;18.10;72.50;;;;;;5052081;28;19912;-73
2024/03/28 08:42:56;;;;;;;;;;;18.00;70.00;;;;;;5052042;28;19904;-73
2024/03/28 08:45:21;;;;;;;;;;;18.10;68.10;;;;;;5051930;28;19908;-75
2024/03/28 08:47:47;;;;;;;;;;;18.50;69.70;;;;;;5069912;28;19908;-73
2024/03/28 08:50:13;;;;;;;;;;;19.00;65.40;;;;;;5052078;28;20321;-71
2024/03/28 08:52:39;;;;;;;;;;;19.40;63.60;;;;;;5069720;28;19912;-71
2024/03/28 08:55:05;;;;;;;;;;;19.80;60.90;;;;;;5046483;28;19904;-70
2024/03/28 08:57:31;;;;;;;;;;;19.90;58.90;;;;;;5051659;28;19957;-71
2024/03/28 08:59:56;;;;;;;;;;;19.50;59.10;;;;;;5051941;28;19909;-71
2024/03/28 09:02:24;;;;;;;;;;;19.40;61.10;;;;;;5051590;28;20440;-71
2024/03/28 09:04:50;;;;;;;;;;;19.60;60.90;;;;;;5069006;28;20400;-72
2024/03/28 09:07:16;;;;;;;;;;;19.90;61.40;;;;;;5069556;28;19904;-73
2024/03/28 09:09:42;;;;;;;;;;;20.30;59.60;;;;;;5069834;28;19909;-71
2024/03/28 09:12:08;;;;;;;;;;;20.40;56.30;;;;;;5052106;28;19958;-72
2024/03/28 09:14:34;;;;;;;;;;;19.90;56.30;;;;;;5051591;28;19908;-72
2024/03/28 09:17:00;;;;;;;;;;;19.30;57.30;;;;;;5069412;28;20400;-72
2024/03/28 09:19:27;;;;;;;;;;;18.90;58.70;;;;;;5051020;28;20353;-72
2024/03/28 09:21:53;;;;;;;;;;;19.00;59.70;;;;;;5051596;28;19916;-71
2024/03/28 09:24:18;;;;;;;;;;;19.30;59.80;;;;;;5069928;28;19931;-71
2024/03/28 09:26:46;;;;;;;;;;;19.90;57.10;;;;;;5069577;28;19931;-72
2024/03/28 09:29:13;;;;;;;;;;;19.90;57.50;;;;;;5069581;28;19912;-72
2024/03/28 09:31:39;;;;;;;;;;;20.50;56.00;;;;;;5051575;28;19920;-72
2024/03/28 09:34:04;;;;;;;;;;;20.60;55.80;;;;;;5069798;28;19916;-72
2024/03/28 09:36:31;;;;;;;;;;;20.70;53.00;;;;;;5069577;28;19905;-72
2024/03/28 09:38:56;;;;;;;;;;;20.70;51.60;;;;;;5066315;28;19924;-73
2024/03/28 09:41:26;;;;;;;;;;;20.40;51.00;;;;;;5088007;28;19918;-73
2024/03/28 09:44:04;;;;;;;;;;;19.90;53.80;;;;;;5089403;28;19931;-72
2024/03/28 09:46:30;;;;;;;;;;;19.50;53.30;;;;;;5090178;28;19911;-73
2024/03/28 09:49:00;;;;;;;;;;;19.00;54.00;;;;;;5088369;28;19908;-73
2024/03/28 09:51:26;;;;;;;;;;;18.80;54.40;;;;;;5090102;28;19957;-72
2024/03/28 09:53:56;;;;;;;;;;;19.10;54.90;;;;;;5089628;28;19904;-72
2024/03/28 09:56:23;;;;;;;;;;;19.50;53.00;;;;;;5089771;28;19914;-72
2024/03/28 09:58:49;;;;;;;;;;;19.90;52.60;;;;;;5089838;28;20117;-73
2024/03/28 10:01:15;;;;;;;;;;;20.00;51.20;;;;;;5089387;28;19923;-71
2024/03/28 10:03:42;;;;;;;;;;;20.40;50.10;;;;;;5089274;28;19908;-72
2024/03/28 10:06:08;;;;;;;;;;;20.50;50.70;;;;;;5089357;28;19904;-73
2024/03/28 10:08:34;;;;;;;;;;;20.80;49.10;;;;;;5089753;28;20374;-73
2024/03/28 10:11:00;;;;;;;;;;;21.20;48.10;;;;;;5087966;28;20007;-73
2024/03/28 10:13:38;;;;;;;;;;;21.40;47.10;;;;;;5087921;28;19961;-73
2024/03/28 10:16:06;;;;;;;;;;;21.30;46.80;;;;;;5089802;28;19912;-72
2024/03/28 10:18:32;;;;;;;;;;;21.60;46.00;;;;;;5093055;28;19908;-73
2024/03/28 10:20:58;;;;;;;;;;;21.90;45.60;;;;;;5091765;28;19922;-72
2024/03/28 10:23:24;;;;;;;;;;;22.60;44.80;;;;;;5091523;28;20285;-73
2024/03/28 10:25:51;;;;;;;;;;;22.80;43.30;;;;;;5092897;28;19908;-73
2024/03/28 10:28:23;;;;;;;;;;;22.50;42.20;;;;;;5093056;28;19912;-72
2024/03/28 10:30:50;;;;;;;;;;;22.20;42.50;;;;;;5092684;28;19915;-73
2024/03/28 10:33:15;;;;;;;;;;;22.20;42.60;;;;;;5091389;28;19911;-72
2024/03/28 10:35:42;;;;;;;;;;;21.80;42.00;;;;;;5092575;28;19908;-73
2024/03/28 10:38:10;;;;;;;;;;;21.00;43.90;;;;;;5089757;28;19947;-73
2024/03/28 10:40:37;;;;;;;;;;;20.60;44.00;;;;;;5054471;28;19904;-71
2024/03/28 10:43:06;;;;;;;;;;;20.40;44.50;;;;;;5054280;28;19904;-71
2024/03/28 10:45:38;;;;;;;;;;;19.70;46.50;;;;;;5054283;28;20043;-75
2024/03/28 10:48:07;;;;;;;;;;;19.20;47.60;;;;;;5072236;28;19911;-75
2024/03/28 10:50:37;;;;;;;;;;;18.80;48.60;;;;;;5054335;28;19950;-75
2024/03/28 10:53:06;;;;;;;;;;;18.60;48.60;;;;;;5072428;28;19912;-74
2024/03/28 10:55:36;;;;;;;;;;;18.30;49.00;;;;;;5054050;28;19908;-74
2024/03/28 10:58:03;;;;;;;;;;;18.20;48.60;;;;;;5053868;28;19912;-75
2024/03/28 11:00:29;;;;;;;;;;;18.30;49.70;;;;;;5053922;28;20399;-72
2024/03/28 11:02:55;;;;;;;;;;;18.20;48.60;;;;;;5053829;28;20408;-74
2024/03/28 11:05:21;;;;;;;;;;;18.00;47.70;;;;;;5071677;28;19947;-75
2024/03/28 11:07:47;;;;;;;;;;;18.00;49.10;;;;;;5053848;28;19955;-74
2024/03/28 11:10:12;;;;;;;;;;;17.90;49.70;;;;;;5071765;28;20365;-75
2024/03/28 11:12:39;;;;;;;;;;;17.90;50.50;;;;;;5071748;28;19986;-75
2024/03/28 11:15:06;;;;;;;;;;;17.80;51.30;;;;;;5071821;28;19904;-74
2024/03/28 11:17:38;;;;;;;;;;;17.90;49.40;;;;;;5053646;28;20403;-75
2024/03/28 11:20:08;;;;;;;;;;;17.80;50.50;;;;;;5054074;28;19912;-74
2024/03/28 11:22:34;;;;;;;;;;;18.00;49.60;;;;;;5071944;28;19965;-71
2024/03/28 11:25:00;;;;;;;;;;;17.90;49.20;;;;;;5071319;28;19908;-75
2024/03/28 11:27:25;;;;;;;;;;;18.00;48.70;;;;;;5053235;28;19904;-74
2024/03/28 11:29:53;;;;;;;;;;;17.80;49.30;;;;;;5071492;28;19912;-74
2024/03/28 11:32:22;;;;;;;;;;;17.70;50.40;;;;;;5071683;28;19914;-74
2024/03/28 11:34:48;;;;;;;;;;;17.90;50.50;;;;;;5053292;28;20489;-75
2024/03/28 11:37:20;;;;;;;;;;;18.00;48.80;;;;;;5071069;28;19908;-75
2024/03/28 11:39:46;;;;;;;;;;;17.90;49.30;;;;;;5082358;28;19920;-74
2024/03/28 11:42:18;;;;;;;;;;;17.70;48.20;;;;;;5091282;28;20265;-74
2024/03/28 11:44:46;;;;;;;;;;;17.50;49.00;;;;;;5090863;28;19990;-74
2024/03/28 11:47:21;;;;;;;;;;;17.30;49.80;;;;;;5089823;28;19915;-73
2024/03/28 11:49:47;;;;;;;;;;;17.00;50.00;;;;;;5089921;28;19946;-73
2024/03/28 11:52:13;;;;;;;;;;;16.80;51.60;;;;;;5089956;28;20340;-72
2024/03/28 11:54:38;;;;;;;;;;;16.50;52.90;;;;;;5089831;28;20006;-73
2024/03/28 11:57:04;;;;;;;;;;;16.40;53.80;;;;;;5089495;28;19942;-72
2024/03/28 11:59:29;;;;;;;;;;;16.50;53.90;;;;;;5089729;28;19904;-72
2024/03/28 12:02:04;;;;;;;;;;;16.50;53.40;;;;;;5091009;28;20037;-72
2024/03/28 12:04:30;;;;;;;;;;;16.50;52.50;;;;;;5089390;28;19932;-72
2024/03/28 12:07:00;;;;;;;;;;;16.40;52.80;;;;;;5090775;28;19946;-74
2024/03/28 12:09:25;;;;;;;;;;;16.60;53.00;;;;;;5090825;28;19919;-73
2024/03/28 12:11:55;;;;;;;;;;;16.50;52.60;;;;;;5089303;28;19907;-73
2024/03/28 12:14:21;;;;;;;;;;;16.60;53.10;;;;;;5090489;28;19915;-73
2024/03/28 12:16:47;;;;;;;;;;;16.60;53.30;;;;;;5090800;28;19908;-73
2024/03/28 12:19:13;;;;;;;;;;;16.80;53.60;;;;;;5090858;28;20213;-73
2024/03/28 12:21:39;;;;;;;;;;;17.00;52.40;;;;;;5089390;28;19915;-74
2024/03/28 12:24:05;;;;;;;;;;;17.20;50.60;;;;;;5089304;28;19904;-72
2024/03/28 12:26:31;;;;;;;;;;;17.40;50.40;;;;;;5090736;28;19908;-73
2024/03/28 12:28:57;;;;;;;;;;;17.60;51.40;;;;;;5090450;28;19991;-72
2024/03/28 12:31:22;;;;;;;;;;;17.90;48.70;;;;;;5089197;28;19962;-73
2024/03/28 12:33:49;;;;;;;;;;;18.00;48.20;;;;;;5089511;28;19923;-73
2024/03/28 12:36:18;;;;;;;;;;;17.80;50.00;;;;;;5089068;28;19999;-73
2024/03/28 12:38:47;;;;;;;;;;;17.90;50.30;;;;;;5082062;28;19920;-73
2024/03/28 12:41:19;;;;;;;;;;;18.20;50.00;;;;;;5070233;28;19912;-73
2024/03/28 12:44:05;;;;;;;;;;;18.40;49.00;;;;;;5052257;28;20311;-74
2024/03/28 12:46:39;;;;;;;;;;;18.50;48.40;;;;;;5069342;28;19951;-73
2024/03/28 12:49:06;;;;;;;;;;;18.70;47.30;;;;;;5052276;28;20345;-73
2024/03/28 12:51:31;;;;;;;;;;;18.60;46.60;;;;;;5052641;28;19909;-73
2024/03/28 12:53:58;;;;;;;;;;;18.60;46.50;;;;;;5051889;28;20327;-73
2024/03/28 12:56:24;;;;;;;;;;;18.60;46.20;;;;;;5052008;28;20007;-72
2024/03/28 12:58:50;;;;;;;;;;;18.40;46.70;;;;;;5051595;28;20002;-72
2024/03/28 13:01:15;;;;;;;;;;;18.40;45.80;;;;;;5069851;28;19912;-74
2024/03/28 13:03:41;;;;;;;;;;;18.40;46.60;;;;;;5051823;28;19908;-72
2024/03/28 13:06:06;;;;;;;;;;;18.40;44.20;;;;;;5069908;28;19904;-72
2024/03/28 13:08:32;;;;;;;;;;;18.30;46.00;;;;;;5069895;28;19908;-72
2024/03/28 13:10:59;;;;;;;;;;;18.20;46.70;;;;;;5069906;28;19904;-72
2024/03/28 13:13:25;;;;;;;;;;;18.20;45.00;;;;;;5051545;28;19915;-73
2024/03/28 13:15:50;;;;;;;;;;;18.00;45.00;;;;;;5069828;28;20014;-72
2024/03/28 13:18:16;;;;;;;;;;;17.80;46.40;;;;;;5069992;28;19955;-73
2024/03/28 13:20:42;;;;;;;;;;;17.70;47.10;;;;;;5051467;28;19915;-72
2024/03/28 13:23:07;;;;;;;;;;;17.70;47.00;;;;;;5051661;28;19911;-72
2024/03/28 13:25:33;;;;;;;;;;;17.60;47.90;;;;;;5051519;28;20412;-73
2024/03/28 13:27:58;;;;;;;;;;;17.70;48.70;;;;;;5069512;28;20517;-73
2024/03/28 13:30:24;;;;;;;;;;;17.90;47.10;;;;;;5069803;28;20045;-73
2024/03/28 13:32:50;;;;;;;;;;;18.00;47.20;;;;;;5051270;28;19944;-72
2024/03/28 13:35:15;;;;;;;;;;;17.90;48.60;;;;;;5051405;28;19904;-72
2024/03/28 13:37:41;;;;;;;;;;;17.90;49.00;;;;;;5051462;28;19915;-73
2024/03/28 13:40:07;;;;;;;;;;;18.00;48.30;;;;;;5069204;28;20117;-71
2024/03/28 13:42:32;;;;;;;;;;;17.80;48.40;;;;;;5051201;28;19959;-72
2024/03/28 13:44:58;;;;;;;;;;;17.70;48.50;;;;;;5069262;28;20386;-72
2024/03/28 13:47:24;;;;;;;;;;;17.80;48.10;;;;;;5069377;28;20377;-72
2024/03/28 13:49:49;;;;;;;;;;;17.90;48.40;;;;;;5051592;28;20419;-73
2024/03/28 13:52:15;;;;;;;;;;;17.90;49.60;;;;;;5055429;28;19915;-73
2024/03/28 13:54:40;;;;;;;;;;;17.90;49.80;;;;;;5073079;28;20277;-74
2024/03/28 13:57:06;;;;;;;;;;;17.80;49.50;;;;;;5055083;28;19912;-72
2024/03/28 13:59:31;;;;;;;;;;;18.00;49.60;;;;;;5073263;28;19904;-72
2024/03/28 14:01:57;;;;;;;;;;;18.10;49.20;;;;;;5073035;28;19970;-72
2024/03/28 14:04:22;;;;;;;;;;;18.00;48.70;;;;;;5072881;28;19911;-73
2024/03/28 14:06:48;;;;;;;;;;;17.90;49.30;;;;;;5055176;28;19912;-72
2024/03/28 14:09:13;;;;;;;;;;;17.90;48.30;;;;;;5055339;28;19912;-74
2024/03/28 14:11:42;;;;;;;;;;;17.90;48.40;;;;;;5072669;28;19912;-72
2024/03/28 14:14:08;;;;;;;;;;;18.00;49.30;;;;;;5054675;28;19904;-73
2024/03/28 14:16:33;;;;;;;;;;;18.10;48.90;;;;;;5054871;28;20011;-73
2024/03/28 14:18:59;;;;;;;;;;;18.20;47.80;;;;;;5054893;28;20015;-72
2024/03/28 14:21:25;;;;;;;;;;;18.20;47.10;;;;;;5072821;28;20303;-72